sensor_id;sensor_type;location;lat;lon;timestamp;P1;durP1;ratioP1;P2;durP2;ratioP2
74510;SDS011;62991;50.040;18.400;2022-11-20T00:00:38;50.10;;;20.27;;
74510;SDS011;62991;50.040;18.400;2022-11-20T00:03:39;38.17;;;18.65;;
74510;SDS011;62991;50.040;18.400;2022-11-20T00:06:40;79.40;;;28.00;;
74510;SDS011;62991;50.040;18.400;2022-11-20T00:09:41;68.40;;;25.90;;
74510;SDS011;62991;50.040;18.400;2022-11-20T00:12:41;90.47;;;30.58;;
74510;SDS011;62991;50.040;18.400;2022-11-20T00:15:42;121.40;;;52.45;;
74510;SDS011;62991;50.040;18.400;2022-11-20T00:18:43;140.90;;;59.53;;
74510;SDS011;62991;50.040;18.400;2022-11-20T00:21:44;263.00;;;112.00;;
74510;SDS011;62991;50.040;18.400;2022-11-20T00:24:45;140.80;;;63.83;;
74510;SDS011;62991;50.040;18.400;2022-11-20T00:27:46;59.97;;;32.80;;
74510;SDS011;62991;50.040;18.400;2022-11-20T00:30:46;100.88;;;40.90;;
74510;SDS011;62991;50.040;18.400;2022-11-20T00:33:47;59.40;;;27.33;;
74510;SDS011;62991;50.040;18.400;2022-11-20T00:36:48;71.95;;;29.65;;
74510;SDS011;62991;50.040;18.400;2022-11-20T00:39:48;70.97;;;35.03;;
74510;SDS011;62991;50.040;18.400;2022-11-20T00:42:49;69.57;;;31.88;;
74510;SDS011;62991;50.040;18.400;2022-11-20T00:45:50;82.13;;;30.42;;
74510;SDS011;62991;50.040;18.400;2022-11-20T00:48:50;92.60;;;36.50;;
74510;SDS011;62991;50.040;18.400;2022-11-20T00:51:51;88.80;;;32.67;;
74510;SDS011;62991;50.040;18.400;2022-11-20T00:54:52;90.53;;;34.90;;
74510;SDS011;62991;50.040;18.400;2022-11-20T00:57:53;75.38;;;31.42;;
74510;SDS011;62991;50.040;18.400;2022-11-20T01:00:53;75.45;;;31.65;;
74510;SDS011;62991;50.040;18.400;2022-11-20T01:04:00;74.10;;;31.38;;
74510;SDS011;62991;50.040;18.400;2022-11-20T01:07:01;79.93;;;31.80;;
74510;SDS011;62991;50.040;18.400;2022-11-20T01:10:02;94.28;;;30.83;;
74510;SDS011;62991;50.040;18.400;2022-11-20T01:13:03;62.42;;;23.60;;
74510;SDS011;62991;50.040;18.400;2022-11-20T01:16:34;51.60;;;25.60;;
74510;SDS011;62991;50.040;18.400;2022-11-20T01:19:36;57.13;;;22.42;;
74510;SDS011;62991;50.040;18.400;2022-11-20T01:22:37;51.35;;;21.65;;
74510;SDS011;62991;50.040;18.400;2022-11-20T01:25:37;56.15;;;21.95;;
74510;SDS011;62991;50.040;18.400;2022-11-20T01:28:38;55.15;;;20.02;;
74510;SDS011;62991;50.040;18.400;2022-11-20T01:31:40;43.22;;;20.92;;
74510;SDS011;62991;50.040;18.400;2022-11-20T01:34:41;46.67;;;17.80;;
74510;SDS011;62991;50.040;18.400;2022-11-20T01:37:42;41.95;;;17.38;;
74510;SDS011;62991;50.040;18.400;2022-11-20T01:40:42;27.55;;;14.25;;
74510;SDS011;62991;50.040;18.400;2022-11-20T01:43:43;44.00;;;17.58;;
74510;SDS011;62991;50.040;18.400;2022-11-20T01:46:57;44.17;;;18.73;;
74510;SDS011;62991;50.040;18.400;2022-11-20T01:50:06;42.83;;;17.10;;
74510;SDS011;62991;50.040;18.400;2022-11-20T01:53:10;41.75;;;16.98;;
74510;SDS011;62991;50.040;18.400;2022-11-20T01:56:16;43.58;;;17.30;;
74510;SDS011;62991;50.040;18.400;2022-11-20T01:59:17;38.67;;;17.00;;
74510;SDS011;62991;50.040;18.400;2022-11-20T02:02:20;37.45;;;13.07;;
74510;SDS011;62991;50.040;18.400;2022-11-20T02:05:38;41.72;;;16.23;;
74510;SDS011;62991;50.040;18.400;2022-11-20T02:08:40;40.35;;;15.82;;
74510;SDS011;62991;50.040;18.400;2022-11-20T02:11:41;34.75;;;14.80;;
74510;SDS011;62991;50.040;18.400;2022-11-20T02:14:42;40.45;;;15.10;;
74510;SDS011;62991;50.040;18.400;2022-11-20T02:17:42;35.35;;;16.00;;
74510;SDS011;62991;50.040;18.400;2022-11-20T02:20:43;33.65;;;13.20;;
74510;SDS011;62991;50.040;18.400;2022-11-20T02:24:04;37.95;;;15.80;;
74510;SDS011;62991;50.040;18.400;2022-11-20T02:27:17;35.17;;;14.63;;
74510;SDS011;62991;50.040;18.400;2022-11-20T02:30:18;31.85;;;13.55;;
74510;SDS011;62991;50.040;18.400;2022-11-20T02:33:19;44.00;;;14.68;;
74510;SDS011;62991;50.040;18.400;2022-11-20T02:36:20;43.05;;;17.58;;
74510;SDS011;62991;50.040;18.400;2022-11-20T02:39:21;34.80;;;15.38;;
74510;SDS011;62991;50.040;18.400;2022-11-20T02:42:25;33.75;;;15.98;;
74510;SDS011;62991;50.040;18.400;2022-11-20T02:45:25;43.95;;;13.70;;
74510;SDS011;62991;50.040;18.400;2022-11-20T02:48:26;44.75;;;16.40;;
74510;SDS011;62991;50.040;18.400;2022-11-20T02:51:27;26.40;;;12.48;;
74510;SDS011;62991;50.040;18.400;2022-11-20T02:54:27;41.30;;;17.77;;
74510;SDS011;62991;50.040;18.400;2022-11-20T02:57:28;31.15;;;16.52;;
74510;SDS011;62991;50.040;18.400;2022-11-20T03:00:29;39.10;;;15.68;;
74510;SDS011;62991;50.040;18.400;2022-11-20T03:03:29;31.50;;;15.95;;
74510;SDS011;62991;50.040;18.400;2022-11-20T03:06:30;20.15;;;10.27;;
74510;SDS011;62991;50.040;18.400;2022-11-20T03:09:31;21.58;;;11.85;;
74510;SDS011;62991;50.040;18.400;2022-11-20T03:12:32;50.88;;;17.75;;
74510;SDS011;62991;50.040;18.400;2022-11-20T03:15:32;40.67;;;15.52;;
74510;SDS011;62991;50.040;18.400;2022-11-20T03:18:33;36.22;;;15.63;;
74510;SDS011;62991;50.040;18.400;2022-11-20T03:21:34;29.05;;;12.40;;
74510;SDS011;62991;50.040;18.400;2022-11-20T03:24:35;38.42;;;16.00;;
74510;SDS011;62991;50.040;18.400;2022-11-20T03:27:36;42.78;;;14.93;;
74510;SDS011;62991;50.040;18.400;2022-11-20T03:30:36;31.85;;;14.80;;
74510;SDS011;62991;50.040;18.400;2022-11-20T03:33:37;41.70;;;19.20;;
74510;SDS011;62991;50.040;18.400;2022-11-20T03:36:40;36.13;;;16.88;;
74510;SDS011;62991;50.040;18.400;2022-11-20T03:39:42;53.13;;;18.95;;
74510;SDS011;62991;50.040;18.400;2022-11-20T03:42:42;100.35;;;37.53;;
74510;SDS011;62991;50.040;18.400;2022-11-20T03:45:46;119.40;;;50.58;;
74510;SDS011;62991;50.040;18.400;2022-11-20T03:48:47;104.75;;;44.83;;
74510;SDS011;62991;50.040;18.400;2022-11-20T03:51:48;85.63;;;39.00;;
74510;SDS011;62991;50.040;18.400;2022-11-20T03:54:48;61.42;;;31.13;;
74510;SDS011;62991;50.040;18.400;2022-11-20T03:57:49;58.40;;;25.05;;
74510;SDS011;62991;50.040;18.400;2022-11-20T04:00:49;80.30;;;37.38;;
74510;SDS011;62991;50.040;18.400;2022-11-20T04:03:51;74.22;;;35.38;;
74510;SDS011;62991;50.040;18.400;2022-11-20T04:06:53;78.50;;;33.17;;
74510;SDS011;62991;50.040;18.400;2022-11-20T04:09:54;74.00;;;29.17;;
74510;SDS011;62991;50.040;18.400;2022-11-20T04:12:54;59.33;;;20.42;;
74510;SDS011;62991;50.040;18.400;2022-11-20T04:15:56;45.97;;;21.55;;
74510;SDS011;62991;50.040;18.400;2022-11-20T04:18:59;50.85;;;16.80;;
74510;SDS011;62991;50.040;18.400;2022-11-20T04:22:01;34.90;;;14.07;;
74510;SDS011;62991;50.040;18.400;2022-11-20T04:25:02;20.83;;;11.82;;
74510;SDS011;62991;50.040;18.400;2022-11-20T04:28:03;30.08;;;12.95;;
74510;SDS011;62991;50.040;18.400;2022-11-20T04:34:05;34.95;;;14.38;;
74510;SDS011;62991;50.040;18.400;2022-11-20T04:37:06;33.70;;;12.70;;
74510;SDS011;62991;50.040;18.400;2022-11-20T04:40:07;36.75;;;16.60;;
74510;SDS011;62991;50.040;18.400;2022-11-20T04:43:08;36.72;;;17.50;;
74510;SDS011;62991;50.040;18.400;2022-11-20T04:46:09;30.70;;;15.57;;
74510;SDS011;62991;50.040;18.400;2022-11-20T04:49:10;43.78;;;17.20;;
74510;SDS011;62991;50.040;18.400;2022-11-20T04:52:11;26.00;;;12.35;;
74510;SDS011;62991;50.040;18.400;2022-11-20T04:55:12;53.90;;;22.17;;
74510;SDS011;62991;50.040;18.400;2022-11-20T04:58:14;66.72;;;28.92;;
74510;SDS011;62991;50.040;18.400;2022-11-20T05:01:16;63.72;;;25.23;;
74510;SDS011;62991;50.040;18.400;2022-11-20T05:04:21;46.30;;;17.40;;
74510;SDS011;62991;50.040;18.400;2022-11-20T05:07:22;28.13;;;15.00;;
74510;SDS011;62991;50.040;18.400;2022-11-20T05:10:23;54.63;;;19.73;;
74510;SDS011;62991;50.040;18.400;2022-11-20T05:13:27;84.10;;;25.85;;
74510;SDS011;62991;50.040;18.400;2022-11-20T05:16:28;66.57;;;24.65;;
74510;SDS011;62991;50.040;18.400;2022-11-20T05:19:29;52.78;;;21.17;;
74510;SDS011;62991;50.040;18.400;2022-11-20T05:22:29;57.40;;;17.20;;
74510;SDS011;62991;50.040;18.400;2022-11-20T05:25:30;36.28;;;14.50;;
74510;SDS011;62991;50.040;18.400;2022-11-20T05:28:31;28.25;;;14.25;;
74510;SDS011;62991;50.040;18.400;2022-11-20T05:31:32;30.17;;;13.43;;
74510;SDS011;62991;50.040;18.400;2022-11-20T05:34:33;53.50;;;20.90;;
74510;SDS011;62991;50.040;18.400;2022-11-20T05:37:33;48.85;;;18.05;;
74510;SDS011;62991;50.040;18.400;2022-11-20T05:40:34;29.63;;;14.15;;
74510;SDS011;62991;50.040;18.400;2022-11-20T05:43:35;41.60;;;16.55;;
74510;SDS011;62991;50.040;18.400;2022-11-20T05:46:37;38.80;;;12.95;;
74510;SDS011;62991;50.040;18.400;2022-11-20T05:49:38;47.13;;;18.42;;
74510;SDS011;62991;50.040;18.400;2022-11-20T05:52:39;37.75;;;18.50;;
74510;SDS011;62991;50.040;18.400;2022-11-20T05:55:39;29.15;;;15.57;;
74510;SDS011;62991;50.040;18.400;2022-11-20T05:58:40;33.67;;;14.80;;
74510;SDS011;62991;50.040;18.400;2022-11-20T06:01:41;38.90;;;17.23;;
74510;SDS011;62991;50.040;18.400;2022-11-20T06:04:42;44.30;;;17.30;;
74510;SDS011;62991;50.040;18.400;2022-11-20T06:07:43;30.55;;;11.25;;
74510;SDS011;62991;50.040;18.400;2022-11-20T06:10:44;50.58;;;16.50;;
74510;SDS011;62991;50.040;18.400;2022-11-20T06:13:44;40.63;;;16.95;;
74510;SDS011;62991;50.040;18.400;2022-11-20T06:16:46;38.03;;;18.73;;
74510;SDS011;62991;50.040;18.400;2022-11-20T06:19:46;44.35;;;20.90;;
74510;SDS011;62991;50.040;18.400;2022-11-20T06:22:47;33.33;;;17.58;;
74510;SDS011;62991;50.040;18.400;2022-11-20T06:25:48;35.10;;;16.40;;
74510;SDS011;62991;50.040;18.400;2022-11-20T06:28:49;42.70;;;16.40;;
74510;SDS011;62991;50.040;18.400;2022-11-20T06:31:50;60.60;;;26.40;;
74510;SDS011;62991;50.040;18.400;2022-11-20T06:34:51;36.42;;;18.60;;
74510;SDS011;62991;50.040;18.400;2022-11-20T06:37:51;32.10;;;12.77;;
74510;SDS011;62991;50.040;18.400;2022-11-20T06:40:52;17.45;;;9.25;;
74510;SDS011;62991;50.040;18.400;2022-11-20T06:43:53;29.92;;;12.35;;
74510;SDS011;62991;50.040;18.400;2022-11-20T06:46:54;22.88;;;11.32;;
74510;SDS011;62991;50.040;18.400;2022-11-20T06:49:55;27.77;;;14.50;;
74510;SDS011;62991;50.040;18.400;2022-11-20T06:52:55;40.13;;;15.88;;
74510;SDS011;62991;50.040;18.400;2022-11-20T06:55:56;30.45;;;12.88;;
74510;SDS011;62991;50.040;18.400;2022-11-20T06:59:03;34.35;;;15.23;;
74510;SDS011;62991;50.040;18.400;2022-11-20T07:02:05;24.45;;;12.13;;
74510;SDS011;62991;50.040;18.400;2022-11-20T07:05:08;37.90;;;17.65;;
74510;SDS011;62991;50.040;18.400;2022-11-20T07:08:09;34.45;;;14.30;;
74510;SDS011;62991;50.040;18.400;2022-11-20T07:11:13;59.97;;;22.33;;
74510;SDS011;62991;50.040;18.400;2022-11-20T07:14:13;59.13;;;26.00;;
74510;SDS011;62991;50.040;18.400;2022-11-20T07:17:14;49.22;;;23.35;;
74510;SDS011;62991;50.040;18.400;2022-11-20T07:20:15;34.00;;;15.02;;
74510;SDS011;62991;50.040;18.400;2022-11-20T07:23:16;36.50;;;16.42;;
74510;SDS011;62991;50.040;18.400;2022-11-20T07:26:17;44.00;;;16.65;;
74510;SDS011;62991;50.040;18.400;2022-11-20T07:29:17;45.90;;;19.38;;
74510;SDS011;62991;50.040;18.400;2022-11-20T07:32:18;68.32;;;27.40;;
74510;SDS011;62991;50.040;18.400;2022-11-20T07:35:19;109.25;;;33.15;;
74510;SDS011;62991;50.040;18.400;2022-11-20T07:38:20;110.70;;;43.78;;
74510;SDS011;62991;50.040;18.400;2022-11-20T07:41:20;64.95;;;27.80;;
74510;SDS011;62991;50.040;18.400;2022-11-20T07:44:21;43.15;;;22.67;;
74510;SDS011;62991;50.040;18.400;2022-11-20T07:47:22;131.10;;;51.35;;
74510;SDS011;62991;50.040;18.400;2022-11-20T07:50:22;374.90;;;160.05;;
74510;SDS011;62991;50.040;18.400;2022-11-20T07:53:23;183.60;;;77.18;;
74510;SDS011;62991;50.040;18.400;2022-11-20T07:56:24;185.00;;;81.88;;
74510;SDS011;62991;50.040;18.400;2022-11-20T07:59:25;63.65;;;28.38;;
74510;SDS011;62991;50.040;18.400;2022-11-20T08:02:26;57.17;;;24.58;;
74510;SDS011;62991;50.040;18.400;2022-11-20T08:05:27;45.92;;;17.52;;
74510;SDS011;62991;50.040;18.400;2022-11-20T08:08:28;39.45;;;20.88;;
74510;SDS011;62991;50.040;18.400;2022-11-20T08:11:28;39.47;;;12.07;;
74510;SDS011;62991;50.040;18.400;2022-11-20T08:14:48;36.38;;;16.33;;
74510;SDS011;62991;50.040;18.400;2022-11-20T08:17:48;41.00;;;17.52;;
74510;SDS011;62991;50.040;18.400;2022-11-20T08:20:49;35.30;;;13.55;;
74510;SDS011;62991;50.040;18.400;2022-11-20T08:23:50;47.50;;;16.83;;
74510;SDS011;62991;50.040;18.400;2022-11-20T08:26:51;32.83;;;14.27;;
74510;SDS011;62991;50.040;18.400;2022-11-20T08:29:52;34.55;;;14.23;;
74510;SDS011;62991;50.040;18.400;2022-11-20T08:32:52;28.52;;;11.25;;
74510;SDS011;62991;50.040;18.400;2022-11-20T08:35:57;31.13;;;12.55;;
74510;SDS011;62991;50.040;18.400;2022-11-20T08:39:02;25.92;;;10.90;;
74510;SDS011;62991;50.040;18.400;2022-11-20T08:42:06;25.80;;;13.50;;
74510;SDS011;62991;50.040;18.400;2022-11-20T08:45:08;35.95;;;14.35;;
74510;SDS011;62991;50.040;18.400;2022-11-20T08:48:09;44.00;;;16.52;;
74510;SDS011;62991;50.040;18.400;2022-11-20T08:51:09;41.20;;;17.90;;
74510;SDS011;62991;50.040;18.400;2022-11-20T08:54:11;43.58;;;18.02;;
74510;SDS011;62991;50.040;18.400;2022-11-20T08:57:12;34.53;;;14.73;;
74510;SDS011;62991;50.040;18.400;2022-11-20T09:00:13;34.40;;;13.23;;
74510;SDS011;62991;50.040;18.400;2022-11-20T09:03:14;34.83;;;17.65;;
74510;SDS011;62991;50.040;18.400;2022-11-20T09:06:15;39.15;;;14.85;;
74510;SDS011;62991;50.040;18.400;2022-11-20T09:09:16;12.63;;;8.02;;
74510;SDS011;62991;50.040;18.400;2022-11-20T09:12:18;44.08;;;15.00;;
74510;SDS011;62991;50.040;18.400;2022-11-20T09:15:19;35.17;;;15.07;;
74510;SDS011;62991;50.040;18.400;2022-11-20T09:18:20;25.75;;;11.35;;
74510;SDS011;62991;50.040;18.400;2022-11-20T09:21:21;43.17;;;16.30;;
74510;SDS011;62991;50.040;18.400;2022-11-20T09:24:22;34.97;;;14.23;;
74510;SDS011;62991;50.040;18.400;2022-11-20T09:27:23;32.08;;;12.65;;
74510;SDS011;62991;50.040;18.400;2022-11-20T09:30:24;41.88;;;13.82;;
74510;SDS011;62991;50.040;18.400;2022-11-20T09:33:25;20.13;;;8.45;;
74510;SDS011;62991;50.040;18.400;2022-11-20T09:36:27;19.88;;;10.18;;
74510;SDS011;62991;50.040;18.400;2022-11-20T09:39:27;29.80;;;14.15;;
74510;SDS011;62991;50.040;18.400;2022-11-20T09:42:39;30.58;;;12.30;;
74510;SDS011;62991;50.040;18.400;2022-11-20T09:55:48;26.80;;;9.95;;
74510;SDS011;62991;50.040;18.400;2022-11-20T09:58:52;29.85;;;13.77;;
74510;SDS011;62991;50.040;18.400;2022-11-20T10:01:57;35.10;;;14.25;;
74510;SDS011;62991;50.040;18.400;2022-11-20T10:08:21;27.20;;;11.32;;
74510;SDS011;62991;50.040;18.400;2022-11-20T10:11:39;30.20;;;12.38;;
74510;SDS011;62991;50.040;18.400;2022-11-20T10:21:41;22.48;;;8.02;;
74510;SDS011;62991;50.040;18.400;2022-11-20T10:25:08;25.52;;;10.63;;
74510;SDS011;62991;50.040;18.400;2022-11-20T10:31:46;22.00;;;9.25;;
74510;SDS011;62991;50.040;18.400;2022-11-20T10:34:53;19.80;;;7.28;;
74510;SDS011;62991;50.040;18.400;2022-11-20T10:38:01;34.67;;;12.05;;
74510;SDS011;62991;50.040;18.400;2022-11-20T10:41:07;21.25;;;11.18;;
74510;SDS011;62991;50.040;18.400;2022-11-20T10:44:28;12.90;;;6.65;;
74510;SDS011;62991;50.040;18.400;2022-11-20T10:47:48;9.65;;;3.85;;
74510;SDS011;62991;50.040;18.400;2022-11-20T10:54:22;18.48;;;4.85;;
74510;SDS011;62991;50.040;18.400;2022-11-20T11:01:05;22.77;;;7.38;;
74510;SDS011;62991;50.040;18.400;2022-11-20T11:04:37;15.05;;;3.92;;
74510;SDS011;62991;50.040;18.400;2022-11-20T11:07:41;10.15;;;4.63;;
74510;SDS011;62991;50.040;18.400;2022-11-20T11:13:51;18.90;;;7.20;;
74510;SDS011;62991;50.040;18.400;2022-11-20T11:16:53;18.25;;;7.20;;
74510;SDS011;62991;50.040;18.400;2022-11-20T11:20:03;13.65;;;4.53;;
74510;SDS011;62991;50.040;18.400;2022-11-20T11:23:22;20.38;;;7.07;;
74510;SDS011;62991;50.040;18.400;2022-11-20T11:26:27;17.85;;;7.05;;
74510;SDS011;62991;50.040;18.400;2022-11-20T11:29:28;27.92;;;9.75;;
74510;SDS011;62991;50.040;18.400;2022-11-20T11:32:30;23.02;;;8.30;;
74510;SDS011;62991;50.040;18.400;2022-11-20T11:35:31;13.32;;;5.65;;
74510;SDS011;62991;50.040;18.400;2022-11-20T11:38:34;12.48;;;3.55;;
74510;SDS011;62991;50.040;18.400;2022-11-20T11:41:43;8.20;;;3.47;;
74510;SDS011;62991;50.040;18.400;2022-11-20T11:44:44;24.55;;;9.00;;
74510;SDS011;62991;50.040;18.400;2022-11-20T11:48:07;18.85;;;6.47;;
74510;SDS011;62991;50.040;18.400;2022-11-20T11:51:09;24.25;;;9.73;;
74510;SDS011;62991;50.040;18.400;2022-11-20T11:54:17;19.42;;;6.53;;
74510;SDS011;62991;50.040;18.400;2022-11-20T12:00:49;35.47;;;14.02;;
74510;SDS011;62991;50.040;18.400;2022-11-20T12:04:03;25.88;;;9.93;;
74510;SDS011;62991;50.040;18.400;2022-11-20T12:07:10;19.95;;;5.80;;
74510;SDS011;62991;50.040;18.400;2022-11-20T12:10:20;21.58;;;8.10;;
74510;SDS011;62991;50.040;18.400;2022-11-20T12:16:51;20.60;;;9.13;;
74510;SDS011;62991;50.040;18.400;2022-11-20T12:19:53;23.83;;;9.70;;
74510;SDS011;62991;50.040;18.400;2022-11-20T12:36:06;28.05;;;9.93;;
74510;SDS011;62991;50.040;18.400;2022-11-20T12:43:00;26.80;;;10.45;;
74510;SDS011;62991;50.040;18.400;2022-11-20T13:03:20;19.92;;;7.72;;
74510;SDS011;62991;50.040;18.400;2022-11-20T13:06:24;33.60;;;12.82;;
74510;SDS011;62991;50.040;18.400;2022-11-20T13:09:25;32.25;;;11.68;;
74510;SDS011;62991;50.040;18.400;2022-11-20T13:15:40;11.82;;;6.95;;
74510;SDS011;62991;50.040;18.400;2022-11-20T13:18:52;26.23;;;10.32;;
74510;SDS011;62991;50.040;18.400;2022-11-20T13:21:52;17.85;;;8.18;;
74510;SDS011;62991;50.040;18.400;2022-11-20T13:24:53;37.13;;;13.55;;
74510;SDS011;62991;50.040;18.400;2022-11-20T13:27:54;30.05;;;11.77;;
74510;SDS011;62991;50.040;18.400;2022-11-20T13:30:57;18.33;;;7.30;;
74510;SDS011;62991;50.040;18.400;2022-11-20T13:33:59;14.48;;;6.28;;
74510;SDS011;62991;50.040;18.400;2022-11-20T13:37:02;20.40;;;7.90;;
74510;SDS011;62991;50.040;18.400;2022-11-20T13:46:23;25.30;;;9.65;;
74510;SDS011;62991;50.040;18.400;2022-11-20T13:49:38;27.48;;;11.90;;
74510;SDS011;62991;50.040;18.400;2022-11-20T13:56:00;21.65;;;10.00;;
74510;SDS011;62991;50.040;18.400;2022-11-20T14:09:32;25.67;;;8.88;;
74510;SDS011;62991;50.040;18.400;2022-11-20T14:12:34;19.35;;;8.73;;
74510;SDS011;62991;50.040;18.400;2022-11-20T14:15:36;14.05;;;6.60;;
74510;SDS011;62991;50.040;18.400;2022-11-20T14:18:40;24.75;;;10.10;;
74510;SDS011;62991;50.040;18.400;2022-11-20T14:21:41;23.17;;;9.32;;
74510;SDS011;62991;50.040;18.400;2022-11-20T14:24:41;21.15;;;6.68;;
74510;SDS011;62991;50.040;18.400;2022-11-20T14:27:43;22.80;;;9.13;;
74510;SDS011;62991;50.040;18.400;2022-11-20T14:30:52;21.77;;;7.28;;
74510;SDS011;62991;50.040;18.400;2022-11-20T14:33:53;33.50;;;12.50;;
74510;SDS011;62991;50.040;18.400;2022-11-20T14:36:58;9.70;;;3.90;;
74510;SDS011;62991;50.040;18.400;2022-11-20T14:40:01;47.92;;;14.55;;
74510;SDS011;62991;50.040;18.400;2022-11-20T14:43:25;36.70;;;12.20;;
74510;SDS011;62991;50.040;18.400;2022-11-20T14:46:27;25.83;;;10.90;;
74510;SDS011;62991;50.040;18.400;2022-11-20T14:49:31;9.48;;;4.85;;
74510;SDS011;62991;50.040;18.400;2022-11-20T14:52:32;50.40;;;15.05;;
74510;SDS011;62991;50.040;18.400;2022-11-20T14:55:34;50.92;;;17.25;;
74510;SDS011;62991;50.040;18.400;2022-11-20T14:58:37;37.53;;;13.75;;
74510;SDS011;62991;50.040;18.400;2022-11-20T15:01:37;14.38;;;7.60;;
74510;SDS011;62991;50.040;18.400;2022-11-20T15:04:48;16.77;;;6.68;;
74510;SDS011;62991;50.040;18.400;2022-11-20T15:07:52;29.27;;;13.52;;
74510;SDS011;62991;50.040;18.400;2022-11-20T15:11:18;32.42;;;12.35;;
74510;SDS011;62991;50.040;18.400;2022-11-20T15:14:23;34.65;;;12.15;;
74510;SDS011;62991;50.040;18.400;2022-11-20T15:17:25;77.10;;;22.13;;
74510;SDS011;62991;50.040;18.400;2022-11-20T15:20:28;35.50;;;11.70;;
74510;SDS011;62991;50.040;18.400;2022-11-20T15:23:31;43.92;;;14.20;;
74510;SDS011;62991;50.040;18.400;2022-11-20T15:26:32;54.60;;;20.40;;
74510;SDS011;62991;50.040;18.400;2022-11-20T15:29:34;39.13;;;16.20;;
74510;SDS011;62991;50.040;18.400;2022-11-20T15:32:35;38.67;;;13.05;;
74510;SDS011;62991;50.040;18.400;2022-11-20T15:35:36;47.13;;;20.65;;
74510;SDS011;62991;50.040;18.400;2022-11-20T15:38:36;38.50;;;15.50;;
74510;SDS011;62991;50.040;18.400;2022-11-20T15:41:37;46.03;;;17.60;;
74510;SDS011;62991;50.040;18.400;2022-11-20T15:44:38;61.05;;;18.98;;
74510;SDS011;62991;50.040;18.400;2022-11-20T15:47:39;52.38;;;16.15;;
74510;SDS011;62991;50.040;18.400;2022-11-20T15:50:59;40.13;;;16.73;;
74510;SDS011;62991;50.040;18.400;2022-11-20T15:54:15;51.85;;;18.27;;
74510;SDS011;62991;50.040;18.400;2022-11-20T15:57:19;26.48;;;10.07;;
74510;SDS011;62991;50.040;18.400;2022-11-20T16:00:20;52.22;;;18.17;;
74510;SDS011;62991;50.040;18.400;2022-11-20T16:03:21;47.17;;;14.90;;
74510;SDS011;62991;50.040;18.400;2022-11-20T16:06:22;51.08;;;16.60;;
74510;SDS011;62991;50.040;18.400;2022-11-20T16:09:23;40.22;;;12.20;;
74510;SDS011;62991;50.040;18.400;2022-11-20T16:12:23;16.25;;;6.45;;
74510;SDS011;62991;50.040;18.400;2022-11-20T16:15:44;15.52;;;5.95;;
74510;SDS011;62991;50.040;18.400;2022-11-20T16:18:52;32.50;;;9.95;;
74510;SDS011;62991;50.040;18.400;2022-11-20T16:21:53;26.45;;;8.90;;
74510;SDS011;62991;50.040;18.400;2022-11-20T16:24:53;28.25;;;12.70;;
74510;SDS011;62991;50.040;18.400;2022-11-20T16:27:54;23.48;;;10.25;;
74510;SDS011;62991;50.040;18.400;2022-11-20T16:30:55;26.27;;;9.15;;
74510;SDS011;62991;50.040;18.400;2022-11-20T16:33:56;34.20;;;10.65;;
74510;SDS011;62991;50.040;18.400;2022-11-20T16:36:58;25.98;;;12.20;;
74510;SDS011;62991;50.040;18.400;2022-11-20T16:39:59;34.72;;;10.63;;
74510;SDS011;62991;50.040;18.400;2022-11-20T16:43:06;24.38;;;9.48;;
74510;SDS011;62991;50.040;18.400;2022-11-20T16:46:09;29.40;;;10.02;;
74510;SDS011;62991;50.040;18.400;2022-11-20T16:49:11;29.35;;;10.63;;
74510;SDS011;62991;50.040;18.400;2022-11-20T16:52:13;14.75;;;5.80;;
74510;SDS011;62991;50.040;18.400;2022-11-20T16:55:13;17.55;;;9.23;;
74510;SDS011;62991;50.040;18.400;2022-11-20T16:58:14;28.70;;;9.73;;
74510;SDS011;62991;50.040;18.400;2022-11-20T17:01:16;29.90;;;11.68;;
74510;SDS011;62991;50.040;18.400;2022-11-20T17:04:21;41.25;;;12.77;;
74510;SDS011;62991;50.040;18.400;2022-11-20T17:07:22;60.42;;;19.35;;
74510;SDS011;62991;50.040;18.400;2022-11-20T17:10:22;17.27;;;6.43;;
74510;SDS011;62991;50.040;18.400;2022-11-20T17:13:23;34.15;;;13.88;;
74510;SDS011;62991;50.040;18.400;2022-11-20T17:16:24;5.07;;;3.15;;
74510;SDS011;62991;50.040;18.400;2022-11-20T17:19:25;29.52;;;10.70;;
74510;SDS011;62991;50.040;18.400;2022-11-20T17:22:25;25.83;;;9.73;;
74510;SDS011;62991;50.040;18.400;2022-11-20T17:25:26;47.70;;;17.48;;
74510;SDS011;62991;50.040;18.400;2022-11-20T17:28:27;45.65;;;16.35;;
74510;SDS011;62991;50.040;18.400;2022-11-20T17:31:28;22.45;;;8.65;;
74510;SDS011;62991;50.040;18.400;2022-11-20T17:34:30;38.72;;;13.82;;
74510;SDS011;62991;50.040;18.400;2022-11-20T17:37:31;25.55;;;13.32;;
74510;SDS011;62991;50.040;18.400;2022-11-20T17:40:32;36.25;;;12.88;;
74510;SDS011;62991;50.040;18.400;2022-11-20T17:43:33;34.13;;;14.73;;
74510;SDS011;62991;50.040;18.400;2022-11-20T17:46:36;30.40;;;10.13;;
74510;SDS011;62991;50.040;18.400;2022-11-20T17:49:37;51.55;;;18.85;;
74510;SDS011;62991;50.040;18.400;2022-11-20T17:52:37;28.13;;;10.25;;
74510;SDS011;62991;50.040;18.400;2022-11-20T17:55:38;22.95;;;10.13;;
74510;SDS011;62991;50.040;18.400;2022-11-20T17:58:57;37.58;;;14.30;;
74510;SDS011;62991;50.040;18.400;2022-11-20T18:01:58;28.25;;;7.70;;
74510;SDS011;62991;50.040;18.400;2022-11-20T18:04:59;31.40;;;10.52;;
74510;SDS011;62991;50.040;18.400;2022-11-20T18:08:00;25.38;;;9.55;;
74510;SDS011;62991;50.040;18.400;2022-11-20T18:11:08;22.55;;;9.75;;
74510;SDS011;62991;50.040;18.400;2022-11-20T18:14:22;23.70;;;8.93;;
74510;SDS011;62991;50.040;18.400;2022-11-20T18:17:27;23.92;;;9.80;;
74510;SDS011;62991;50.040;18.400;2022-11-20T18:20:28;23.60;;;9.80;;
74510;SDS011;62991;50.040;18.400;2022-11-20T18:23:29;30.42;;;11.20;;
74510;SDS011;62991;50.040;18.400;2022-11-20T18:26:30;33.15;;;12.75;;
74510;SDS011;62991;50.040;18.400;2022-11-20T18:29:30;24.30;;;9.05;;
74510;SDS011;62991;50.040;18.400;2022-11-20T18:32:32;27.95;;;11.50;;
74510;SDS011;62991;50.040;18.400;2022-11-20T18:35:34;29.00;;;9.20;;
74510;SDS011;62991;50.040;18.400;2022-11-20T18:38:35;18.20;;;8.00;;
74510;SDS011;62991;50.040;18.400;2022-11-20T18:41:39;24.90;;;10.93;;
74510;SDS011;62991;50.040;18.400;2022-11-20T18:44:59;48.33;;;15.00;;
74510;SDS011;62991;50.040;18.400;2022-11-20T18:48:03;25.02;;;9.25;;
74510;SDS011;62991;50.040;18.400;2022-11-20T18:51:05;51.22;;;18.85;;
74510;SDS011;62991;50.040;18.400;2022-11-20T18:54:06;22.52;;;9.00;;
74510;SDS011;62991;50.040;18.400;2022-11-20T18:57:07;58.33;;;19.85;;
74510;SDS011;62991;50.040;18.400;2022-11-20T19:00:09;43.67;;;17.38;;
74510;SDS011;62991;50.040;18.400;2022-11-20T19:03:10;51.95;;;20.65;;
74510;SDS011;62991;50.040;18.400;2022-11-20T19:06:11;49.70;;;18.70;;
74510;SDS011;62991;50.040;18.400;2022-11-20T19:09:13;37.90;;;14.20;;
74510;SDS011;62991;50.040;18.400;2022-11-20T19:12:14;37.63;;;13.02;;
74510;SDS011;62991;50.040;18.400;2022-11-20T19:15:15;41.42;;;13.52;;
74510;SDS011;62991;50.040;18.400;2022-11-20T19:18:16;26.67;;;9.52;;